Time;durP1;ratioP1;P1;durP2;ratioP2;P2;SDS_P1;SDS_P2;PMS_P1;PMS_P2;Temp;Humidity;BMP_temperature;BMP_pressure;BME280_temperature;BME280_humidity;BME280_pressure;Samples;Min_cycle;Max_cycle;Signal;HPM_P1;HPM_P2
2021/04/15 00:00:20;;;;;;;2.13;0.70;;;6.20;99.90;;;;;;5110078;28;20222;-67
2021/04/15 00:02:46;;;;;;;6.17;0.80;;;6.10;99.90;;;;;;5125676;27;20200;-66
2021/04/15 00:05:21;;;;;;;3.20;0.83;;;6.10;99.90;;;;;;5110391;28;20401;-67
2021/04/15 00:07:48;;;;;;;4.10;1.10;;;6.10;99.90;;;;;;5110409;28;20292;-67
2021/04/15 00:10:14;;;;;;;6.00;0.80;;;6.10;99.90;;;;;;5109659;28;20213;-67
2021/04/15 00:12:41;;;;;;;9.47;1.60;;;6.10;99.90;;;;;;5112820;27;20271;-66
2021/04/15 00:15:11;;;;;;;2.47;0.90;;;6.10;99.90;;;;;;5115443;27;20196;-66
2021/04/15 00:17:38;;;;;;;6.27;0.80;;;6.10;99.90;;;;;;5120452;27;20244;-66
2021/04/15 00:20:06;;;;;;;5.00;1.03;;;6.00;99.90;;;;;;5115520;27;20326;-66
2021/04/15 00:22:34;;;;;;;3.23;1.10;;;6.00;99.90;;;;;;5106492;27;20223;-67
2021/04/15 00:25:00;;;;;;;4.57;1.57;;;6.00;99.90;;;;;;5116243;27;20282;-67
2021/04/15 00:27:27;;;;;;;2.47;0.90;;;6.00;99.90;;;;;;5109904;28;20195;-67
2021/04/15 00:29:54;;;;;;;3.40;1.03;;;6.00;99.90;;;;;;5107206;28;20199;-67
2021/04/15 00:32:20;;;;;;;6.07;1.57;;;6.00;99.90;;;;;;5109631;28;20199;-67
2021/04/15 00:34:47;;;;;;;7.60;2.10;;;6.00;99.90;;;;;;5109343;28;20195;-67
2021/04/15 00:37:13;;;;;;;3.87;1.10;;;6.00;99.90;;;;;;5108423;27;20512;-67
2021/04/15 00:39:40;;;;;;;5.03;1.07;;;6.00;99.90;;;;;;5095282;28;20220;-66
2021/04/15 00:42:08;;;;;;;6.17;1.00;;;6.10;99.90;;;;;;5107780;28;20218;-66
2021/04/15 00:44:34;;;;;;;2.03;0.80;;;6.00;99.90;;;;;;5107800;28;20290;-67
2021/04/15 00:47:03;;;;;;;4.27;1.33;;;6.10;99.90;;;;;;5124683;27;20721;-67
2021/04/15 00:49:33;;;;;;;6.03;1.10;;;6.10;99.90;;;;;;5109358;28;20203;-66
2021/04/15 00:52:03;;;;;;;5.70;1.00;;;6.10;99.90;;;;;;5109466;28;20278;-66
2021/04/15 00:54:35;;;;;;;1.00;0.50;;;6.10;99.90;;;;;;5105795;28;20196;-66
2021/04/15 00:57:07;;;;;;;6.10;1.07;;;6.00;99.90;;;;;;5108532;28;20629;-66
2021/04/15 00:59:34;;;;;;;3.60;1.13;;;6.10;99.90;;;;;;5107686;28;20196;-66
2021/04/15 01:02:01;;;;;;;4.90;1.10;;;6.10;99.90;;;;;;5108772;28;20274;-67
2021/04/15 01:04:28;;;;;;;4.83;1.03;;;6.00;99.90;;;;;;5116523;27;20238;-66
2021/04/15 01:06:55;;;;;;;7.13;1.53;;;6.00;99.90;;;;;;5108948;28;20196;-66
2021/04/15 01:09:23;;;;;;;3.57;1.00;;;6.00;99.90;;;;;;5108358;28;20747;-66
2021/04/15 01:12:19;;;;;;;7.17;1.17;;;6.00;99.90;;;;;;5116794;27;20222;-66
2021/04/15 01:14:58;;;;;;;6.77;0.93;;;6.10;99.90;;;;;;5119767;27;20689;-66
2021/04/15 01:17:30;;;;;;;3.90;0.80;;;6.00;99.90;;;;;;5121740;27;20219;-66
2021/04/15 01:20:31;;;;;;;1.90;0.60;;;6.00;99.90;;;;;;5119197;27;20702;-66
2021/04/15 01:23:11;;;;;;;4.13;0.80;;;6.10;99.90;;;;;;5123230;27;20206;-67
2021/04/15 01:26:08;;;;;;;4.00;0.93;;;6.10;99.90;;;;;;5125031;27;20745;-66
2021/04/15 01:28:55;;;;;;;4.40;1.10;;;6.00;99.90;;;;;;5027094;28;20301;-66
2021/04/15 01:31:34;;;;;;;2.47;1.00;;;6.00;99.90;;;;;;5041237;28;20584;-67
2021/04/15 01:34:06;;;;;;;2.47;1.17;;;6.00;99.90;;;;;;5043935;28;20239;-67
2021/04/15 01:36:39;;;;;;;2.30;1.20;;;6.10;99.90;;;;;;5042222;28;20312;-67
2021/04/15 01:39:10;;;;;;;3.70;1.10;;;6.00;99.90;;;;;;5028882;28;20289;-67
2021/04/15 01:41:40;;;;;;;2.20;1.13;;;6.00;99.90;;;;;;5025360;28;20240;-67
2021/04/15 01:44:12;;;;;;;9.40;1.40;;;5.90;99.90;;;;;;5024648;28;20359;-67
2021/04/15 01:46:40;;;;;;;4.43;1.50;;;6.00;99.90;;;;;;5024662;28;20220;-67
2021/04/15 01:49:09;;;;;;;4.83;1.30;;;6.00;99.90;;;;;;5025646;28;20217;-67
2021/04/15 01:51:41;;;;;;;5.17;1.40;;;6.10;99.90;;;;;;5022634;28;20210;-67
2021/04/15 01:54:13;;;;;;;8.27;2.00;;;6.10;99.90;;;;;;5024959;28;20286;-67
2021/04/15 01:56:44;;;;;;;7.73;2.10;;;6.10;99.90;;;;;;5025312;28;20225;-66
2021/04/15 01:59:18;;;;;;;2.97;1.37;;;6.20;99.90;;;;;;5024191;28;20428;-67
2021/04/15 02:01:50;;;;;;;4.67;1.13;;;6.20;99.90;;;;;;5027062;28;20202;-67
2021/04/15 02:04:23;;;;;;;4.57;1.10;;;6.20;99.90;;;;;;5042767;28;20246;-66
2021/04/15 02:06:54;;;;;;;9.13;1.57;;;6.20;99.90;;;;;;5105858;28;20256;-67
2021/04/15 02:09:23;;;;;;;7.10;0.90;;;6.10;99.90;;;;;;5119005;28;20194;-66
2021/04/15 02:11:55;;;;;;;1.97;0.97;;;6.10;99.90;;;;;;5114238;28;20270;-66
2021/04/15 02:14:27;;;;;;;9.13;1.47;;;6.10;99.90;;;;;;5118147;27;20278;-66
2021/04/15 02:16:58;;;;;;;5.47;1.17;;;6.10;99.90;;;;;;5115619;28;20272;-66
2021/04/15 02:19:29;;;;;;;5.30;1.20;;;6.10;99.90;;;;;;5118704;28;20626;-66
2021/04/15 02:22:03;;;;;;;2.90;1.00;;;6.10;99.90;;;;;;5117986;27;20531;-66
2021/04/15 02:24:35;;;;;;;8.20;1.13;;;6.10;99.90;;;;;;5118884;27;20219;-67
2021/04/15 02:27:08;;;;;;;6.70;1.10;;;6.10;99.90;;;;;;5120172;27;20278;-67
2021/04/15 02:29:38;;;;;;;3.83;1.10;;;6.10;99.90;;;;;;5117429;28;20200;-67
2021/04/15 02:32:12;;;;;;;2.70;0.80;;;6.10;99.90;;;;;;5122737;28;20559;-67
2021/04/15 02:34:42;;;;;;;2.73;0.80;;;6.10;99.90;;;;;;5117170;28;20214;-68
2021/04/15 02:37:12;;;;;;;10.40;1.63;;;6.10;99.90;;;;;;5123348;27;20219;-67
2021/04/15 02:39:42;;;;;;;10.87;1.20;;;6.10;99.90;;;;;;5093732;28;20560;-67
2021/04/15 02:42:11;;;;;;;5.57;1.57;;;6.10;99.90;;;;;;5107814;28;20196;-66
2021/04/15 02:44:47;;;;;;;5.80;1.10;;;6.10;99.90;;;;;;5106646;28;20199;-66
2021/04/15 02:47:17;;;;;;;2.70;1.00;;;6.10;99.90;;;;;;5107863;28;20264;-66
2021/04/15 02:49:46;;;;;;;5.13;0.90;;;6.10;99.90;;;;;;5107333;28;20671;-66
2021/04/15 02:52:19;;;;;;;2.00;1.07;;;6.20;99.90;;;;;;5107882;28;20312;-66
2021/04/15 02:54:48;;;;;;;5.23;1.97;;;6.10;99.90;;;;;;5105750;28;20318;-66
2021/04/15 02:57:20;;;;;;;7.50;1.33;;;6.10;99.90;;;;;;5107545;28;20294;-66
2021/04/15 02:59:53;;;;;;;3.37;1.00;;;6.10;99.90;;;;;;5108997;28;20239;-66
2021/04/15 03:02:23;;;;;;;2.50;1.03;;;6.10;99.90;;;;;;5110994;28;20341;-66
2021/04/15 03:04:53;;;;;;;14.00;2.07;;;6.10;99.90;;;;;;5111320;28;20279;-66
2021/04/15 03:07:21;;;;;;;2.13;1.20;;;6.10;99.90;;;;;;5111586;28;20542;-66
2021/04/15 03:09:49;;;;;;;6.07;1.17;;;6.10;99.90;;;;;;5109708;28;20200;-67
2021/04/15 03:12:20;;;;;;;4.63;1.33;;;6.00;99.90;;;;;;5109322;27;20227;-66
2021/04/15 03:14:53;;;;;;;6.00;1.20;;;6.10;99.90;;;;;;5110468;28;20291;-66
2021/04/15 03:17:23;;;;;;;1.87;1.00;;;6.10;99.90;;;;;;5111006;28;20247;-66
2021/04/15 03:19:55;;;;;;;1.80;0.77;;;6.10;99.90;;;;;;5111220;28;20673;-66
2021/04/15 03:22:29;;;;;;;4.00;1.00;;;6.00;99.90;;;;;;5107769;28;20278;-67
2021/04/15 03:24:59;;;;;;;7.03;1.40;;;6.20;99.90;;;;;;5104221;28;20199;-66
2021/04/15 03:27:31;;;;;;;4.33;1.00;;;6.10;99.90;;;;;;5107697;27;20703;-66
2021/04/15 03:30:05;;;;;;;5.47;1.00;;;6.10;99.90;;;;;;5110395;28;20214;-67
2021/04/15 03:32:38;;;;;;;6.10;1.10;;;6.00;99.90;;;;;;5110848;28;20200;-67
2021/04/15 03:35:10;;;;;;;3.90;1.10;;;6.00;99.90;;;;;;5111482;27;20198;-67
2021/04/15 03:37:43;;;;;;;1.77;0.87;;;6.00;99.90;;;;;;5126135;27;20224;-66
2021/04/15 03:40:12;;;;;;;8.57;1.00;;;6.00;99.90;;;;;;5096887;28;20241;-68
2021/04/15 03:42:44;;;;;;;5.90;0.90;;;6.00;99.90;;;;;;5109995;28;20269;-66
2021/04/15 03:45:17;;;;;;;4.73;1.37;;;6.00;99.90;;;;;;5097643;28;20247;-66
2021/04/15 03:47:47;;;;;;;9.73;1.40;;;6.00;99.90;;;;;;5110399;28;20250;-66
2021/04/15 03:50:18;;;;;;;5.83;1.37;;;6.00;99.90;;;;;;5110735;28;20220;-66
2021/04/15 03:52:54;;;;;;;4.20;1.20;;;6.00;99.90;;;;;;5109958;27;20235;-66
2021/04/15 03:55:26;;;;;;;3.13;1.43;;;6.00;99.90;;;;;;5109258;28;20234;-66
2021/04/15 03:57:57;;;;;;;4.53;1.67;;;6.00;99.90;;;;;;5109715;28;20662;-66
2021/04/15 04:00:31;;;;;;;2.67;0.83;;;6.00;99.90;;;;;;5106419;28;20208;-66
2021/04/15 04:03:03;;;;;;;7.97;1.30;;;6.00;99.90;;;;;;5107684;28;20278;-66
2021/04/15 04:05:35;;;;;;;4.23;0.80;;;6.00;99.90;;;;;;5114966;27;20252;-67
2021/04/15 04:08:04;;;;;;;3.70;0.93;;;6.00;99.90;;;;;;5114658;27;20207;-66
2021/04/15 04:10:35;;;;;;;1.63;0.60;;;6.00;99.90;;;;;;5115470;27;20287;-66
2021/04/15 04:13:16;;;;;;;3.13;1.10;;;6.00;99.90;;;;;;5116238;27;20697;-66
2021/04/15 04:15:48;;;;;;;9.07;0.90;;;5.90;99.90;;;;;;5119591;27;20861;-66
2021/04/15 04:18:19;;;;;;;3.17;1.20;;;5.90;99.90;;;;;;5107407;27;20226;-66
2021/04/15 04:20:45;;;;;;;4.37;0.87;;;5.90;99.90;;;;;;5119295;27;20238;-66
2021/04/15 04:23:29;;;;;;;3.57;1.17;;;5.90;99.90;;;;;;5116427;27;20195;-66
2021/04/15 04:26:04;;;;;;;4.23;1.20;;;5.80;99.90;;;;;;5120419;27;20589;-66
2021/04/15 04:28:36;;;;;;;6.27;1.63;;;5.80;99.90;;;;;;5118983;27;20643;-66
2021/04/15 04:31:08;;;;;;;3.43;1.20;;;5.80;99.90;;;;;;5118717;27;20192;-66
2021/04/15 04:33:39;;;;;;;3.27;1.00;;;5.70;99.90;;;;;;5120464;27;20259;-65
2021/04/15 04:36:08;;;;;;;2.27;1.23;;;5.70;99.90;;;;;;5117224;27;20214;-66
2021/04/15 04:38:36;;;;;;;2.20;0.90;;;5.80;99.90;;;;;;5115185;27;20588;-65
2021/04/15 04:41:08;;;;;;;2.77;1.13;;;5.70;99.90;;;;;;5108670;28;20333;-66
2021/04/15 04:43:41;;;;;;;2.47;0.87;;;5.70;99.90;;;;;;5096095;28;20216;-66
2021/04/15 04:46:15;;;;;;;6.40;1.07;;;5.70;99.90;;;;;;5103300;28;20199;-67
2021/04/15 04:48:49;;;;;;;4.90;1.00;;;5.70;99.90;;;;;;5098748;28;20283;-66
2021/04/15 04:51:19;;;;;;;3.50;1.07;;;5.60;99.90;;;;;;5109515;28;20227;-67
2021/04/15 04:53:48;;;;;;;5.27;1.10;;;5.60;99.90;;;;;;5109341;28;20668;-66
2021/04/15 04:56:23;;;;;;;5.37;1.00;;;5.60;99.90;;;;;;5108295;28;20215;-66
2021/04/15 04:58:51;;;;;;;5.23;1.20;;;5.60;99.90;;;;;;5106870;28;20207;-66
2021/04/15 05:01:19;;;;;;;4.00;1.37;;;5.50;99.90;;;;;;5108970;28;20195;-66
2021/04/15 05:03:46;;;;;;;5.27;1.30;;;5.50;99.90;;;;;;5109282;28;20187;-66
2021/04/15 05:06:21;;;;;;;3.87;1.10;;;5.50;99.90;;;;;;5104477;28;20212;-66
2021/04/15 05:08:55;;;;;;;4.83;0.90;;;5.50;99.90;;;;;;5112808;27;20199;-66
2021/04/15 05:11:23;;;;;;;3.13;0.80;;;5.40;99.90;;;;;;5108561;28;20234;-66
2021/04/15 05:13:50;;;;;;;4.77;1.23;;;5.40;99.90;;;;;;5113887;27;20670;-67
2021/04/15 05:16:21;;;;;;;6.33;1.00;;;5.30;99.90;;;;;;5115304;27;20203;-66
2021/04/15 05:18:47;;;;;;;3.43;0.77;;;5.30;99.90;;;;;;5118948;27;20760;-66
2021/04/15 05:21:17;;;;;;;2.90;0.70;;;5.40;99.90;;;;;;5109240;27;20257;-67
2021/04/15 05:23:51;;;;;;;2.53;0.90;;;5.40;99.90;;;;;;5111020;27;20293;-66
2021/04/15 05:26:21;;;;;;;5.27;1.00;;;5.30;99.90;;;;;;5118268;27;20237;-68
2021/04/15 05:28:51;;;;;;;2.73;0.97;;;5.40;99.90;;;;;;5119706;27;20207;-67
2021/04/15 05:31:20;;;;;;;5.60;1.00;;;5.30;99.90;;;;;;5121192;27;20199;-66
2021/04/15 05:33:48;;;;;;;2.47;1.00;;;5.30;99.90;;;;;;5123936;27;20298;-67
2021/04/15 05:36:22;;;;;;;6.23;0.80;;;5.30;99.90;;;;;;5123375;27;20561;-67
2021/04/15 05:38:51;;;;;;;5.23;1.77;;;5.30;99.90;;;;;;5113241;27;20202;-66
2021/04/15 05:41:23;;;;;;;6.40;1.60;;;5.30;99.90;;;;;;5108161;28;20203;-66
2021/04/15 05:43:53;;;;;;;6.07;1.30;;;5.30;99.90;;;;;;5108185;28;20203;-66
2021/04/15 05:46:23;;;;;;;8.13;1.13;;;5.40;99.90;;;;;;5108491;28;20286;-66
2021/04/15 05:48:57;;;;;;;4.13;1.60;;;5.40;99.90;;;;;;5108794;28;20202;-66
2021/04/15 05:51:34;;;;;;;9.40;1.60;;;5.40;99.90;;;;;;5107549;28;20231;-66
2021/04/15 05:54:07;;;;;;;5.27;1.40;;;5.40;99.90;;;;;;5106268;28;20257;-66
2021/04/15 05:56:37;;;;;;;4.80;1.57;;;5.40;99.90;;;;;;5121988;28;20554;-67
2021/04/15 05:59:12;;;;;;;6.40;1.57;;;5.40;99.90;;;;;;5105796;28;20211;-67
2021/04/15 06:01:43;;;;;;;9.40;1.50;;;5.30;99.90;;;;;;5107897;28;20301;-66
2021/04/15 06:04:23;;;;;;;4.23;1.03;;;5.30;99.90;;;;;;5108531;28;20219;-66
2021/04/15 06:06:49;;;;;;;9.73;1.30;;;5.30;99.90;;;;;;5112574;28;20240;-67
2021/04/15 06:09:16;;;;;;;4.17;1.07;;;5.30;99.90;;;;;;5108084;28;20243;-67
2021/04/15 06:12:02;;;;;;;1.93;0.80;;;5.30;99.90;;;;;;5095154;28;20200;-67
2021/04/15 06:14:36;;;;;;;4.70;1.80;;;5.30;99.90;;;;;;5105823;28;20244;-66
2021/04/15 06:17:25;;;;;;;5.73;1.70;;;5.30;99.90;;;;;;5107900;28;20306;-66
2021/04/15 06:19:57;;;;;;;13.43;1.30;;;5.30;99.90;;;;;;5107216;28;20310;-66
2021/04/15 06:22:26;;;;;;;12.97;2.07;;;5.30;99.90;;;;;;5106156;28;20203;-66
2021/04/15 06:24:58;;;;;;;6.47;2.10;;;5.30;99.90;;;;;;5106840;28;20252;-66
2021/04/15 06:27:25;;;;;;;7.27;2.57;;;5.40;99.90;;;;;;5098030;28;20276;-65
2021/04/15 06:30:02;;;;;;;13.20;2.73;;;5.40;99.90;;;;;;5099226;28;20287;-66
2021/04/15 06:32:36;;;;;;;4.10;1.43;;;5.40;99.90;;;;;;5109444;28;20271;-66
2021/04/15 06:35:06;;;;;;;7.43;2.10;;;5.40;99.90;;;;;;5111337;27;20643;-66
2021/04/15 06:37:39;;;;;;;13.63;3.30;;;5.40;99.90;;;;;;5111227;28;20762;-66
2021/04/15 06:40:51;;;;;;;11.80;2.70;;;5.40;99.90;;;;;;5105389;27;20336;-66
2021/04/15 06:43:35;;;;;;;12.27;4.63;;;5.40;99.90;;;;;;5120660;27;20283;-66
2021/04/15 06:46:14;;;;;;;17.60;4.63;;;5.40;99.90;;;;;;5109535;28;20200;-66
2021/04/15 06:49:06;;;;;;;11.33;3.43;;;5.40;99.90;;;;;;5106123;28;20310;-66
2021/04/15 06:51:53;;;;;;;9.37;4.07;;;5.40;99.90;;;;;;5103363;27;20286;-66
2021/04/15 06:54:33;;;;;;;14.33;4.77;;;5.40;99.90;;;;;;5109667;28;20198;-66
2021/04/15 06:57:33;;;;;;;23.67;5.03;;;5.40;99.90;;;;;;5101784;27;20310;-66
2021/04/15 07:00:29;;;;;;;10.73;3.80;;;5.40;99.90;;;;;;5044349;28;20218;-65
2021/04/15 07:03:07;;;;;;;19.50;3.77;;;5.40;99.90;;;;;;4989690;28;20214;-65
2021/04/15 07:05:42;;;;;;;11.90;3.57;;;5.40;99.90;;;;;;4987012;28;20208;-66
2021/04/15 07:08:24;;;;;;;17.63;2.57;;;5.30;99.90;;;;;;4987049;28;20207;-66
2021/04/15 07:10:58;;;;;;;11.83;3.37;;;5.40;99.90;;;;;;4973728;28;20285;-66
2021/04/15 07:13:48;;;;;;;13.47;4.10;;;5.40;99.90;;;;;;4983856;28;20211;-66
2021/04/15 07:16:38;;;;;;;9.30;3.07;;;5.40;99.90;;;;;;4986424;28;20677;-66
2021/04/15 07:19:42;;;;;;;11.97;3.27;;;5.50;99.90;;;;;;4971396;28;20226;-66
2021/04/15 07:22:35;;;;;;;19.23;4.73;;;5.50;99.90;;;;;;4986561;28;20203;-66
2021/04/15 07:25:14;;;;;;;13.70;3.03;;;5.60;99.90;;;;;;4983427;28;20366;-66
2021/04/15 07:28:09;;;;;;;29.10;5.50;;;5.60;99.90;;;;;;4972143;28;20205;-66
2021/04/15 07:31:09;;;;;;;10.87;2.60;;;5.60;99.90;;;;;;4991191;28;20226;-66
2021/04/15 07:33:55;;;;;;;6.47;1.63;;;5.70;99.90;;;;;;4972128;28;20230;-66
2021/04/15 07:36:35;;;;;;;3.00;1.30;;;5.80;99.90;;;;;;5002390;28;20213;-66
2021/04/15 07:39:29;;;;;;;6.47;1.50;;;5.80;99.90;;;;;;5054643;28;20204;-66
2021/04/15 07:42:21;;;;;;;6.70;1.30;;;4.80;99.90;;;;;;5044922;28;20766;-66
2021/04/15 07:44:52;;;;;;;3.60;1.50;;;6.00;99.90;;;;;;5042001;28;20714;-67
2021/04/15 07:47:48;;;;;;;5.67;1.30;;;6.00;99.90;;;;;;5047475;28;20213;-67
2021/04/15 07:50:37;;;;;;;3.73;1.27;;;6.10;99.90;;;;;;5048139;28;20202;-65
2021/04/15 07:53:24;;;;;;;9.00;1.70;;;6.10;99.90;;;;;;5050915;28;20299;-67
2021/04/15 07:56:23;;;;;;;3.97;1.77;;;6.10;99.90;;;;;;5046075;28;20208;-67
2021/04/15 07:59:08;;;;;;;9.90;2.23;;;6.20;99.90;;;;;;5040719;28;20259;-67
2021/04/15 08:02:01;;;;;;;21.47;4.63;;;6.20;99.90;;;;;;5052909;28;20202;-67
2021/04/15 08:05:17;;;;;;;16.73;2.93;;;6.20;99.90;;;;;;5044796;28;20208;-67
2021/04/15 08:07:58;;;;;;;8.57;1.90;;;6.30;99.90;;;;;;5050609;28;20214;-67
2021/04/15 08:11:12;;;;;;;6.30;1.30;;;6.30;99.90;;;;;;5044835;28;20229;-67
2021/04/15 08:13:48;;;;;;;5.73;1.53;;;6.40;99.90;;;;;;5004701;28;20230;-67
2021/04/15 08:16:40;;;;;;;2.83;1.50;;;6.50;99.90;;;;;;5005899;28;20222;-67
2021/04/15 08:19:27;;;;;;;8.80;1.50;;;6.60;99.90;;;;;;5056067;28;20303;-67
2021/04/15 08:22:00;;;;;;;3.73;1.10;;;6.70;99.90;;;;;;5078656;28;20236;-67
2021/04/15 08:24:31;;;;;;;5.93;1.00;;;6.90;99.90;;;;;;5082887;28;20205;-67
2021/04/15 08:27:36;;;;;;;4.10;1.50;;;7.10;99.90;;;;;;5068515;28;20189;-66
2021/04/15 08:30:25;;;;;;;11.20;2.07;;;7.30;99.90;;;;;;5083582;28;20203;-67
2021/04/15 08:33:11;;;;;;;5.27;1.40;;;7.50;99.90;;;;;;5108149;27;20262;-67
2021/04/15 08:35:59;;;;;;;8.63;1.70;;;7.50;99.90;;;;;;5122075;27;20194;-68
2021/04/15 08:38:35;;;;;;;6.13;1.40;;;7.40;99.90;;;;;;5108534;28;20219;-67
2021/04/15 08:41:11;;;;;;;5.47;1.50;;;7.40;99.90;;;;;;5108896;28;20227;-67
2021/04/15 08:43:51;;;;;;;8.03;1.53;;;7.40;99.90;;;;;;5107871;27;20192;-67
2021/04/15 08:46:22;;;;;;;7.43;1.30;;;7.50;99.90;;;;;;5110874;27;20218;-67
2021/04/15 08:49:01;;;;;;;13.00;2.90;;;7.60;99.90;;;;;;5110907;27;20185;-67
2021/04/15 08:51:53;;;;;;;8.77;1.80;;;7.70;99.90;;;;;;5112918;27;20263;-65
2021/04/15 08:54:41;;;;;;;8.17;1.50;;;7.80;99.90;;;;;;5105809;27;20260;-66
2021/04/15 08:57:32;;;;;;;7.53;1.40;;;7.80;99.90;;;;;;5107423;28;20221;-67
2021/04/15 09:00:18;;;;;;;6.90;1.37;;;7.80;99.90;;;;;;5104482;28;20301;-67
2021/04/15 09:02:56;;;;;;;7.77;1.40;;;7.80;99.90;;;;;;5103947;28;20220;-67
2021/04/15 09:05:35;;;;;;;5.73;1.03;;;7.80;99.90;;;;;;5108829;28;20202;-67
2021/04/15 09:08:19;;;;;;;5.53;1.43;;;7.80;99.90;;;;;;5109915;27;20201;-65
2021/04/15 09:10:54;;;;;;;2.97;1.20;;;7.80;99.90;;;;;;5110477;27;20188;-66
2021/04/15 09:13:37;;;;;;;7.07;1.67;;;7.70;99.90;;;;;;5106995;28;20312;-65
2021/04/15 09:16:23;;;;;;;4.13;1.20;;;7.70;99.90;;;;;;5100411;28;20193;-66
2021/04/15 09:18:58;;;;;;;6.63;1.60;;;7.70;99.90;;;;;;5109833;27;20208;-66
2021/04/15 09:21:43;;;;;;;11.63;2.27;;;7.60;99.90;;;;;;5107684;28;20228;-66
2021/04/15 09:24:18;;;;;;;4.90;1.87;;;7.60;99.90;;;;;;5106631;28;20202;-65
2021/04/15 09:27:15;;;;;;;8.47;1.80;;;7.50;99.90;;;;;;5105684;27;20266;-66
2021/04/15 09:29:54;;;;;;;5.60;1.60;;;7.40;99.90;;;;;;5106485;28;20230;-66
2021/04/15 09:32:22;;;;;;;11.73;2.33;;;7.40;99.90;;;;;;5097228;28;20200;-66
2021/04/15 09:35:11;;;;;;;9.60;1.80;;;7.40;99.90;;;;;;5106225;28;20197;-67
2021/04/15 09:38:06;;;;;;;6.60;1.60;;;7.40;99.90;;;;;;5107265;28;20212;-67
2021/04/15 09:40:44;;;;;;;9.43;1.83;;;7.30;99.90;;;;;;5100771;28;20207;-66
2021/04/15 09:43:18;;;;;;;3.50;1.43;;;7.30;99.90;;;;;;5104201;27;20669;-66
2021/04/15 09:46:02;;;;;;;9.03;1.77;;;7.10;99.90;;;;;;5106296;28;20233;-66
2021/04/15 09:48:56;;;;;;;9.07;1.80;;;7.10;99.90;;;;;;5108757;28;20273;-65
2021/04/15 09:51:51;;;;;;;6.90;1.80;;;7.00;99.90;;;;;;5102040;28;20201;-66
2021/04/15 09:54:30;;;;;;;6.83;1.43;;;7.00;99.90;;;;;;5103595;28;20589;-66
2021/04/15 09:57:16;;;;;;;7.17;3.20;;;7.00;99.90;;;;;;5107257;28;20197;-66
2021/04/15 10:00:16;;;;;;;9.90;3.38;;;7.00;99.90;;;;;;5101559;28;21007;-66
2021/04/15 10:02:57;;;;;;;17.50;3.73;;;7.00;99.90;;;;;;5043459;28;20211;-66
2021/04/15 10:05:40;;;;;;;19.37;3.40;;;7.00;99.90;;;;;;5036435;28;20308;-66
2021/04/15 10:08:12;;;;;;;6.10;1.83;;;7.10;99.90;;;;;;5034591;28;20196;-67
2021/04/15 10:10:49;;;;;;;6.53;1.93;;;7.10;99.90;;;;;;5055616;28;20209;-67
2021/04/15 10:13:29;;;;;;;7.57;2.23;;;7.10;99.90;;;;;;5051284;28;20206;-66
2021/04/15 10:16:01;;;;;;;2.73;1.50;;;7.10;99.90;;;;;;5052474;28;20740;-67
2021/04/15 10:18:48;;;;;;;7.10;1.87;;;7.20;99.90;;;;;;5050440;28;20286;-67
2021/04/15 10:21:26;;;;;;;7.43;1.80;;;7.20;99.90;;;;;;5046377;28;20288;-66
2021/04/15 10:24:05;;;;;;;6.77;1.50;;;7.30;99.90;;;;;;5056503;28;20306;-69
2021/04/15 10:26:59;;;;;;;4.83;1.70;;;7.30;99.90;;;;;;5051640;28;20308;-67
2021/04/15 10:29:58;;;;;;;9.30;2.00;;;7.30;99.90;;;;;;5048171;28;20198;-66
2021/04/15 10:32:40;;;;;;;7.33;1.70;;;7.30;99.90;;;;;;4976425;28;20216;-66
2021/04/15 10:35:39;;;;;;;7.37;1.70;;;7.30;99.90;;;;;;4993630;28;20279;-66
2021/04/15 10:38:39;;;;;;;12.93;2.10;;;7.30;99.90;;;;;;4980007;28;20255;-66
2021/04/15 10:41:31;;;;;;;5.73;2.03;;;7.30;99.90;;;;;;5067784;28;20351;-67
2021/04/15 10:44:25;;;;;;;8.00;2.13;;;7.30;99.90;;;;;;5048320;28;20583;-67
2021/04/15 10:47:03;;;;;;;8.93;2.47;;;7.30;99.90;;;;;;5067263;28;20210;-67
2021/04/15 10:49:51;;;;;;;9.07;2.70;;;7.30;99.90;;;;;;5068474;28;20297;-66
2021/04/15 10:52:50;;;;;;;7.17;2.30;;;7.30;99.90;;;;;;5067618;28;20336;-67
2021/04/15 10:55:24;;;;;;;6.67;2.07;;;7.30;99.90;;;;;;5057848;28;20292;-67
2021/04/15 10:57:51;;;;;;;9.53;2.57;;;7.30;99.90;;;;;;5067108;28;20227;-67
2021/04/15 11:00:26;;;;;;;6.13;1.73;;;7.30;99.90;;;;;;5049373;28;20233;-67
2021/04/15 11:02:56;;;;;;;5.90;1.50;;;7.30;99.90;;;;;;5066738;28;20267;-67
2021/04/15 11:05:27;;;;;;;5.67;1.30;;;7.30;99.90;;;;;;5068501;28;20753;-67
2021/04/15 11:07:56;;;;;;;4.70;1.30;;;7.40;99.90;;;;;;5066416;28;20700;-66
2021/04/15 11:10:28;;;;;;;8.70;1.50;;;7.50;99.90;;;;;;5106254;28;20198;-66
2021/04/15 11:13:08;;;;;;;5.23;1.70;;;7.50;99.90;;;;;;5108487;28;20206;-66
2021/04/15 11:15:43;;;;;;;10.37;1.90;;;7.50;99.90;;;;;;5107023;27;20221;-67
2021/04/15 11:18:14;;;;;;;8.10;1.93;;;7.50;99.90;;;;;;5109078;27;20301;-67
2021/04/15 11:20:42;;;;;;;4.00;1.73;;;7.50;99.90;;;;;;5109520;27;20320;-68
2021/04/15 11:23:26;;;;;;;8.27;2.00;;;7.50;99.90;;;;;;5106962;28;21084;-66
2021/04/15 11:25:53;;;;;;;10.67;2.23;;;7.50;99.90;;;;;;5110525;27;20240;-66
2021/04/15 11:28:31;;;;;;;12.87;2.80;;;7.50;99.90;;;;;;5106873;27;20271;-66
2021/04/15 11:31:15;;;;;;;23.97;4.90;;;7.50;99.90;;;;;;5107657;28;20272;-66
2021/04/15 11:33:44;;;;;;;9.23;2.10;;;7.60;99.90;;;;;;5106456;27;20240;-66
2021/04/15 11:36:14;;;;;;;5.43;1.90;;;7.60;99.90;;;;;;5108198;28;20197;-66
2021/04/15 11:38:43;;;;;;;8.90;1.83;;;7.60;99.90;;;;;;5103737;28;20563;-66
2021/04/15 11:41:16;;;;;;;5.70;1.70;;;7.60;99.90;;;;;;5105663;28;20688;-66
2021/04/15 11:43:42;;;;;;;16.40;2.10;;;7.60;99.90;;;;;;5103235;27;20647;-67
2021/04/15 11:46:21;;;;;;;9.37;1.90;;;7.60;99.90;;;;;;5109177;27;20226;-66
2021/04/15 11:49:05;;;;;;;4.63;1.50;;;7.70;99.90;;;;;;5108928;28;20573;-66
2021/04/15 11:51:38;;;;;;;8.10;2.57;;;7.70;99.90;;;;;;5106893;28;20299;-66
2021/04/15 11:54:12;;;;;;;8.20;2.60;;;7.60;99.90;;;;;;5108591;27;20217;-67
2021/04/15 11:56:42;;;;;;;12.00;2.40;;;7.60;99.90;;;;;;5117230;27;20210;-66
2021/04/15 11:59:26;;;;;;;9.10;2.10;;;7.50;99.90;;;;;;5103092;28;20219;-66
2021/04/15 12:01:56;;;;;;;5.47;1.70;;;7.50;99.90;;;;;;5106800;28;20289;-67
2021/04/15 12:04:26;;;;;;;6.60;1.60;;;7.40;99.90;;;;;;5102449;27;20703;-66
2021/04/15 12:06:58;;;;;;;8.40;2.70;;;7.50;99.90;;;;;;5102146;28;20208;-66
2021/04/15 12:09:33;;;;;;;8.60;3.10;;;7.40;99.90;;;;;;5108274;27;20308;-66
2021/04/15 12:12:09;;;;;;;8.53;2.97;;;7.40;99.90;;;;;;5110251;27;20666;-67
2021/04/15 12:14:37;;;;;;;15.37;5.00;;;7.50;99.90;;;;;;5106399;27;20223;-66
2021/04/15 12:17:10;;;;;;;12.77;4.77;;;7.50;99.90;;;;;;5109963;27;20204;-67
2021/04/15 12:19:48;;;;;;;9.17;3.53;;;7.40;99.90;;;;;;5108386;28;20286;-66
2021/04/15 12:22:21;;;;;;;9.40;2.93;;;7.50;99.90;;;;;;5107655;27;20280;-67
2021/04/15 12:24:54;;;;;;;8.73;2.57;;;7.50;99.90;;;;;;5110907;27;20254;-66
2021/04/15 12:27:24;;;;;;;9.37;2.40;;;7.40;99.90;;;;;;5106780;28;20737;-67
2021/04/15 12:29:58;;;;;;;5.37;1.60;;;7.40;99.90;;;;;;5105719;27;20208;-67
2021/04/15 12:32:36;;;;;;;4.70;1.60;;;7.30;99.90;;;;;;5099562;27;20216;-66
2021/04/15 12:35:11;;;;;;;3.80;1.33;;;7.30;99.90;;;;;;5109244;27;20208;-66
2021/04/15 12:37:42;;;;;;;6.83;1.80;;;7.30;99.90;;;;;;5107019;28;20615;-65
2021/04/15 12:40:19;;;;;;;7.17;1.47;;;7.30;99.90;;;;;;5095668;27;20247;-67
2021/04/15 12:42:47;;;;;;;10.03;1.90;;;7.30;99.90;;;;;;5107327;27;20254;-67
2021/04/15 12:45:25;;;;;;;7.17;2.67;;;7.30;99.90;;;;;;5105072;28;20236;-67
2021/04/15 12:47:53;;;;;;;9.87;2.60;;;7.20;99.90;;;;;;5109897;27;20576;-67
2021/04/15 12:50:20;;;;;;;7.27;2.60;;;7.10;99.90;;;;;;5108623;28;20288;-67
2021/04/15 12:52:49;;;;;;;8.23;2.70;;;7.10;99.90;;;;;;5114355;27;20200;-67
2021/04/15 12:55:18;;;;;;;4.33;1.97;;;7.10;99.90;;;;;;5107001;28;20194;-67
2021/04/15 12:57:45;;;;;;;9.67;2.33;;;7.10;99.90;;;;;;5107864;27;20316;-67
2021/04/15 13:00:16;;;;;;;10.23;2.57;;;7.10;99.90;;;;;;5105309;28;20226;-67
2021/04/15 13:02:43;;;;;;;7.33;2.90;;;7.00;99.90;;;;;;5103154;28;20206;-67
2021/04/15 13:05:33;;;;;;;13.73;3.33;;;7.00;99.90;;;;;;5108550;28;20236;-67
2021/04/15 13:08:20;;;;;;;8.77;2.47;;;6.90;99.90;;;;;;5108367;27;20217;-66
2021/04/15 13:10:51;;;;;;;22.37;4.40;;;6.90;99.90;;;;;;5105612;28;20192;-66
2021/04/15 13:13:38;;;;;;;18.03;4.40;;;6.90;99.90;;;;;;5108234;28;20201;-66
2021/04/15 13:16:06;;;;;;;6.33;2.13;;;6.80;99.90;;;;;;5106774;27;20278;-66
2021/04/15 13:18:42;;;;;;;4.90;1.87;;;6.80;99.90;;;;;;5105972;27;20223;-66
2021/04/15 13:21:25;;;;;;;6.77;2.10;;;6.90;99.90;;;;;;5105174;28;20695;-66
2021/04/15 13:23:52;;;;;;;8.77;2.00;;;6.80;99.90;;;;;;5102813;27;20220;-66
2021/04/15 13:26:37;;;;;;;3.07;1.60;;;6.80;99.90;;;;;;5102938;28;20245;-66
2021/04/15 13:29:22;;;;;;;6.53;2.13;;;6.70;99.90;;;;;;5102945;27;20193;-66
2021/04/15 13:32:01;;;;;;;6.70;1.80;;;6.60;99.90;;;;;;5104040;27;20209;-66
2021/04/15 13:34:59;;;;;;;3.23;1.53;;;6.50;99.90;;;;;;5102124;28;20582;-66
2021/04/15 13:37:42;;;;;;;6.67;1.60;;;6.50;99.90;;;;;;5103542;28;20664;-66
2021/04/15 13:40:42;;;;;;;8.43;1.90;;;6.50;99.90;;;;;;5094337;28;20238;-66
2021/04/15 13:43:35;;;;;;;4.77;1.87;;;6.50;99.90;;;;;;5121049;27;20298;-66